ROK weather

Rockhampton Airport
Rockhampton, Queensland, Australia

Public forecast

Using degrees Celsius for public forecast. Weather courtesy of forecast.io.

METAR (pilot weather report)

Retrieved 2017/10/19 06:30 UTC (0 seconds ago):

YBRK 190630Z AUTO 09010KT 9999 // SCT032 BKN037 OVC059 23/18 Q1019

TAF (pilot weather forecast)

Forecast is more than 6 hours old.

Retrieved 2017/10/18 18:36 UTC (11 hours ago):

TAF YBRK 181711Z 1818/1918 10010KT 9999 -RA SCT008 BKN015 BKN025 FM190000 10014KT 9999 -SHRA SCT025 BKN045 FM191400 12006KT 9999 -SHRA SCT020 BKN050 TEMPO 1818/1824 3000 RA BKN010 INTER 1900/1912 4000 SHRA BKN010